Etusivu
METAR-TAF:

METAR-TAF

Lentoasemat :

Georgetown Municipal Airport

Georgetown, Texas, Yhdysvallat

Leveyspiiri: 30-41N, Pituuspiiri: 097-41W, korkeus merenpinnasta: 240 m

Tämänhetkinen sää

Tämä raportti tehtiin 47 minuuttia sitten, kello 09.56 UTC
Tuuli 8 kn lännestä
Lämpötila 17°C
Kosteus 72%
Ilmanpaine 1018 hPa
Näkyvyys: 16.1 km
selkeää

METAR: KGTU 060956Z AUTO 28008KT 10SM CLR 17/12 A3006 RMK AO2 SLP175 T01670117

Aika: 04:43 (10:43 UTC)


TAF: puuttuu

Säähavainnot ja -ennusteet yli 4000 lentoasemalta (METAR- ja TAF-raportit).

Käytössä olevat sääasemat on merkitty karttaan keltaisilla ja punaisilla pisteillä.

Aseta hiiri pisteen päälle nähdäksesi sääaseman nimen.

Klikkaa sitten nähdäksesi säähavainnot ja -ennusteet.

Kartan vaihtaminen: klikkaa mustalla rastilla varustettuja vihreitä pisteitä, niin voit zoomata sisään; viivalla varustettua vihreää pistettä, niin voit zoomata ulos tai vihreitä nuolia, niin pääset viereisille kartoille.


METAR-TAF: